createdAt,value
2023-03-12T00:00:43.827Z,3.90
2023-03-12T00:03:15.020Z,1.30
2023-03-12T00:05:46.615Z,1.40
2023-03-12T00:08:17.143Z,1.30
2023-03-12T00:10:47.708Z,1.93
2023-03-12T00:13:18.253Z,2.90
2023-03-12T00:15:48.752Z,0.80
2023-03-12T00:18:19.238Z,1.30
2023-03-12T00:20:56.580Z,1.03
2023-03-12T00:23:27.389Z,2.57
2023-03-12T00:26:02.154Z,1.93
2023-03-12T00:28:32.648Z,4.73
2023-03-12T00:31:03.368Z,0.70
2023-03-12T00:33:34.217Z,0.40
2023-03-12T00:36:04.898Z,0.63
2023-03-12T00:38:35.464Z,4.03
2023-03-12T00:41:06.354Z,0.50
2023-03-12T00:43:36.964Z,0.67
2023-03-12T00:46:07.876Z,0.40
2023-03-12T00:48:38.417Z,2.90
2023-03-12T00:51:10.250Z,4.13
2023-03-12T00:53:41.013Z,0.43
2023-03-12T00:56:12.073Z,0.30
2023-03-12T00:58:43.421Z,0.70
2023-03-12T01:01:14.418Z,0.60
2023-03-12T01:03:45.058Z,1.80
2023-03-12T01:06:15.670Z,0.90
2023-03-12T01:08:46.452Z,6.37
2023-03-12T01:11:18.127Z,2.73
2023-03-12T01:13:49.235Z,2.07
2023-03-12T01:16:20.766Z,4.20
2023-03-12T01:18:51.446Z,1.90
2023-03-12T01:21:22.267Z,0.70
2023-03-12T01:23:53.489Z,0.50
2023-03-12T01:26:25.262Z,1.03
2023-03-12T01:28:56.200Z,1.43
2023-03-12T01:31:27.519Z,2.50
2023-03-12T01:33:59.558Z,0.87
2023-03-12T01:36:31.784Z,2.17
2023-03-12T01:39:02.629Z,0.93
2023-03-12T01:41:34.418Z,1.00
2023-03-12T01:44:06.080Z,0.50
2023-03-12T01:46:38.871Z,2.97
2023-03-12T01:49:11.686Z,2.13
2023-03-12T01:51:45.228Z,1.47
2023-03-12T01:54:18.939Z,4.50
2023-03-12T01:56:51.095Z,2.63
2023-03-12T01:59:24.802Z,2.13
2023-03-12T02:01:55.500Z,0.30
2023-03-12T02:04:28.767Z,3.23
2023-03-12T02:07:18.364Z,0.60
2023-03-12T02:09:50.642Z,0.33
2023-03-12T02:12:21.244Z,0.40
2023-03-12T02:14:52.456Z,5.30
2023-03-12T02:17:23.451Z,0.40
2023-03-12T02:19:59.477Z,1.93
2023-03-12T02:22:31.095Z,0.50
2023-03-12T02:25:04.613Z,0.20
2023-03-12T02:27:37.443Z,2.90
2023-03-12T02:30:10.323Z,1.83
2023-03-12T02:32:42.787Z,1.50
2023-03-12T02:35:14.715Z,2.00
2023-03-12T02:37:52.733Z,2.13
2023-03-12T02:40:26.849Z,1.30
2023-03-12T02:42:58.559Z,1.53
2023-03-12T02:45:30.473Z,2.70
2023-03-12T02:48:01.585Z,1.23
2023-03-12T02:50:32.685Z,0.70
2023-03-12T02:53:03.266Z,6.60
2023-03-12T02:55:33.872Z,1.40
2023-03-12T02:58:04.958Z,2.03
2023-03-12T03:00:35.657Z,1.87
2023-03-12T03:03:06.628Z,2.73
2023-03-12T03:05:38.315Z,1.73
2023-03-12T03:08:09.608Z,1.97
2023-03-12T03:10:40.306Z,2.30
2023-03-12T03:13:10.886Z,3.17
2023-03-12T03:15:41.540Z,3.30
2023-03-12T03:18:12.106Z,2.40
2023-03-12T03:20:44.666Z,16.40
2023-03-12T03:23:15.159Z,1.03
2023-03-12T03:25:47.579Z,112.27
2023-03-12T03:28:18.143Z,21.23
2023-03-12T03:30:49.225Z,3.77
2023-03-12T03:33:39.811Z,3.73
2023-03-12T03:36:14.999Z,0.90
2023-03-12T03:38:47.975Z,3.57
2023-03-12T03:41:19.972Z,1.30
2023-03-12T03:43:50.668Z,1.10
2023-03-12T03:46:21.277Z,1.57
2023-03-12T03:48:52.074Z,0.93
2023-03-12T03:51:22.696Z,2.00
2023-03-12T03:53:53.220Z,1.23
2023-03-12T03:56:23.964Z,1.10
2023-03-12T03:58:54.662Z,1.40
2023-03-12T04:01:25.301Z,0.90
2023-03-12T04:03:55.933Z,2.00
2023-03-12T04:06:26.788Z,1.60
2023-03-12T04:08:57.927Z,2.07
2023-03-12T04:11:28.951Z,2.20
2023-03-12T04:13:59.919Z,9.23
2023-03-12T04:16:30.923Z,98.13
2023-03-12T04:19:01.454Z,3.63
2023-03-12T04:21:32.999Z,1.50
2023-03-12T04:24:03.527Z,3.03
2023-03-12T04:26:34.241Z,41.10
2023-03-12T04:29:04.760Z,1.30
2023-03-12T04:31:35.672Z,2.53
2023-03-12T04:34:06.571Z,2.20
2023-03-12T04:36:37.124Z,3.20
2023-03-12T04:39:07.922Z,217.77
2023-03-12T04:41:39.571Z,142.80
2023-03-12T04:44:12.679Z,385.23
2023-03-12T04:46:43.930Z,510.27
2023-03-12T04:49:14.468Z,548.27
2023-03-12T04:51:45.051Z,449.90
2023-03-12T04:54:15.859Z,54.67
2023-03-12T04:56:46.467Z,157.47
2023-03-12T04:59:17.077Z,147.63
2023-03-12T05:01:47.706Z,84.67
2023-03-12T05:04:18.465Z,9.63
2023-03-12T05:06:49.007Z,57.80
2023-03-12T05:09:19.568Z,5.83
2023-03-12T05:11:50.654Z,33.97
2023-03-12T05:14:21.216Z,10.63
2023-03-12T05:16:51.932Z,9.27
2023-03-12T05:19:22.554Z,3.87
2023-03-12T05:21:53.137Z,6.77
2023-03-12T05:24:23.824Z,2.57
2023-03-12T05:26:54.329Z,11.47
2023-03-12T05:29:25.171Z,3.60
2023-03-12T05:31:55.927Z,3.27
2023-03-12T05:34:26.591Z,4.13
2023-03-12T05:36:58.247Z,4.90
2023-03-12T05:39:30.408Z,6.60
2023-03-12T05:42:01.017Z,6.43
2023-03-12T05:44:31.668Z,20.90
2023-03-12T05:47:02.334Z,4.33
2023-03-12T05:49:33.563Z,4.03
2023-03-12T05:52:04.141Z,3.63
2023-03-12T05:54:34.864Z,3.70
2023-03-12T05:57:05.357Z,5.77
2023-03-12T05:59:36.620Z,4.67
2023-03-12T06:02:07.594Z,5.13
2023-03-12T06:04:38.628Z,15.10
2023-03-12T06:07:09.190Z,4.97
2023-03-12T06:09:39.932Z,3.43
2023-03-12T06:12:10.961Z,4.30
2023-03-12T06:14:41.498Z,5.00
2023-03-12T06:17:12.147Z,19.10
2023-03-12T06:19:44.114Z,4.93
2023-03-12T06:22:14.769Z,9.33
2023-03-12T06:24:47.135Z,4.47
2023-03-12T06:27:17.981Z,5.97
2023-03-12T06:29:49.126Z,5.47
2023-03-12T06:32:19.800Z,4.37
2023-03-12T06:34:50.438Z,4.37
2023-03-12T06:37:21.108Z,5.00
2023-03-12T06:39:52.520Z,6.03
2023-03-12T06:42:23.845Z,2.60
2023-03-12T06:44:54.725Z,4.87
2023-03-12T06:47:25.366Z,6.30
2023-03-12T06:49:56.166Z,3.57
2023-03-12T06:52:27.481Z,8.97
2023-03-12T06:54:58.110Z,10.40
2023-03-12T06:57:28.784Z,4.37
2023-03-12T06:59:59.405Z,4.20
2023-03-12T07:02:30.062Z,5.53
2023-03-12T07:05:00.873Z,10.60
2023-03-12T07:07:31.599Z,4.43
2023-03-12T07:10:03.023Z,3.07
2023-03-12T07:12:34.019Z,4.23
2023-03-12T07:15:05.247Z,3.63
2023-03-12T07:17:35.955Z,3.43
2023-03-12T07:20:08.632Z,6.13
2023-03-12T07:22:39.345Z,5.57
2023-03-12T07:25:11.639Z,5.60
2023-03-12T07:27:43.896Z,3.27
2023-03-12T07:30:20.305Z,5.20
2023-03-12T07:32:51.335Z,5.13
2023-03-12T07:35:22.844Z,3.33
2023-03-12T07:37:53.954Z,5.77
2023-03-12T07:40:25.117Z,4.13
2023-03-12T07:42:55.945Z,2.53
2023-03-12T07:45:27.336Z,2.53
2023-03-12T07:47:59.217Z,3.60
2023-03-12T07:50:30.386Z,5.53
2023-03-12T07:53:02.344Z,3.83
2023-03-12T07:55:33.572Z,5.23
2023-03-12T07:58:05.434Z,3.20
2023-03-12T08:00:36.436Z,3.13
2023-03-12T08:03:07.768Z,1.80
2023-03-12T08:05:39.053Z,2.83
2023-03-12T08:08:10.931Z,2.87
2023-03-12T08:10:42.099Z,1.97
2023-03-12T08:13:13.139Z,2.80
2023-03-12T08:15:44.973Z,3.73
2023-03-12T08:18:15.692Z,2.37
2023-03-12T08:20:46.779Z,5.57
2023-03-12T08:23:17.688Z,3.03
2023-03-12T08:25:49.978Z,2.47
2023-03-12T08:28:22.014Z,3.70
2023-03-12T08:30:54.926Z,2.43
2023-03-12T08:33:27.678Z,3.27
2023-03-12T08:35:58.480Z,1.40
2023-03-12T08:38:30.651Z,2.03
2023-03-12T08:41:02.994Z,3.57
2023-03-12T08:43:33.821Z,6.83
2023-03-12T08:46:05.100Z,1.63
2023-03-12T08:48:36.115Z,1.93
2023-03-12T08:51:07.843Z,1.10
2023-03-12T08:53:39.422Z,3.80
2023-03-12T08:56:11.171Z,2.40
2023-03-12T08:58:41.823Z,1.43
2023-03-12T09:01:15.400Z,2.23
2023-03-12T09:03:47.784Z,2.20
2023-03-12T09:06:19.498Z,2.30
2023-03-12T09:08:51.918Z,2.87
2023-03-12T09:11:22.726Z,2.37
2023-03-12T09:14:26.642Z,4.00
2023-03-12T09:16:27.894Z,5.30
2023-03-12T09:18:58.757Z,8.17
2023-03-12T09:21:29.656Z,4.40
2023-03-12T09:24:00.339Z,6.80
2023-03-12T09:26:31.165Z,5.00
2023-03-12T09:29:02.487Z,1.90
2023-03-12T09:31:34.410Z,2.10
2023-03-12T09:34:05.978Z,4.87
2023-03-12T09:36:36.983Z,7.17
2023-03-12T09:39:07.798Z,6.63
2023-03-12T09:41:40.689Z,3.13
2023-03-12T09:44:16.850Z,3.13
2023-03-12T09:46:50.522Z,3.23
2023-03-12T09:49:23.804Z,5.20
2023-03-12T09:51:56.866Z,3.00
2023-03-12T09:54:31.013Z,4.50
2023-03-12T09:57:05.141Z,3.13
2023-03-12T09:59:37.571Z,3.73
2023-03-12T10:04:58.861Z,4.22
2023-03-12T10:13:17.575Z,3.90
2023-03-12T10:15:55.090Z,2.20
2023-03-12T10:18:33.265Z,2.63
2023-03-12T10:21:11.791Z,2.17
2023-03-12T10:26:28.744Z,2.47
2023-03-12T10:29:02.745Z,3.67
2023-03-12T10:31:37.050Z,1.73
2023-03-12T10:34:12.394Z,4.90
2023-03-12T10:36:43.396Z,1.53
2023-03-12T10:39:16.753Z,1.53
2023-03-12T10:41:49.307Z,2.70
2023-03-12T10:44:23.178Z,1.10
2023-03-12T10:47:20.268Z,1.60
2023-03-12T10:49:51.430Z,2.70
2023-03-12T10:52:23.279Z,3.40
2023-03-12T10:54:54.711Z,1.23
2023-03-12T10:57:28.333Z,2.10
2023-03-12T11:00:02.023Z,3.07
2023-03-12T11:02:35.745Z,2.67
2023-03-12T11:05:09.451Z,1.27
2023-03-12T11:07:41.532Z,1.27
2023-03-12T11:10:22.763Z,1.07
2023-03-12T11:13:05.486Z,1.53
2023-03-12T11:15:44.501Z,0.83
2023-03-12T11:18:25.502Z,0.87
2023-03-12T11:20:58.300Z,0.77
2023-03-12T11:23:31.810Z,1.13
2023-03-12T11:26:05.084Z,0.33
2023-03-12T11:28:40.740Z,0.93
2023-03-12T11:31:14.837Z,0.97
2023-03-12T11:33:45.512Z,0.77
2023-03-12T11:36:33.498Z,0.80
2023-03-12T11:39:07.533Z,1.80
2023-03-12T11:41:49.130Z,1.57
2023-03-12T11:44:31.739Z,1.00
2023-03-12T11:47:29.704Z,3.00
2023-03-12T11:50:15.995Z,1.33
2023-03-12T11:52:54.720Z,0.97
2023-03-12T11:55:47.968Z,1.20
2023-03-12T11:58:30.486Z,0.50
2023-03-12T12:04:12.587Z,1.43
2023-03-12T12:06:49.822Z,0.83
2023-03-12T12:09:29.357Z,1.27
2023-03-12T12:12:07.789Z,0.90
2023-03-12T12:14:49.890Z,1.33
2023-03-12T12:17:27.707Z,2.10
2023-03-12T12:20:07.798Z,1.60
2023-03-12T12:22:46.894Z,2.10
2023-03-12T12:25:27.257Z,1.70
2023-03-12T12:28:22.897Z,1.90
2023-03-12T12:31:02.959Z,1.40
2023-03-12T12:33:41.197Z,0.80
2023-03-12T12:36:12.573Z,1.30
2023-03-12T12:38:43.992Z,1.57
2023-03-12T12:41:21.208Z,1.33
2023-03-12T12:43:53.887Z,2.57
2023-03-12T12:46:28.148Z,0.43
2023-03-12T12:49:03.219Z,1.03
2023-03-12T12:51:38.288Z,0.80
2023-03-12T12:54:14.088Z,1.03
2023-03-12T12:56:48.015Z,1.23
2023-03-12T12:59:27.473Z,0.57
2023-03-12T13:01:59.696Z,1.57
2023-03-12T13:04:34.346Z,1.17
2023-03-12T13:07:08.393Z,0.60
2023-03-12T13:09:43.480Z,0.63
2023-03-12T13:12:22.600Z,1.67
2023-03-12T13:14:54.950Z,65.47
2023-03-12T13:20:21.239Z,0.43
2023-03-12T13:22:59.501Z,1.73
2023-03-12T13:25:40.932Z,2.73
2023-03-12T13:28:35.752Z,2.07
2023-03-12T13:31:26.522Z,2.73
2023-03-12T13:33:59.920Z,1.33
2023-03-12T13:36:32.754Z,1.20
2023-03-12T13:41:50.539Z,2.80
2023-03-12T13:44:34.875Z,0.80
2023-03-12T13:47:07.125Z,1.50
2023-03-12T13:49:40.788Z,3.10
2023-03-12T13:52:20.271Z,3.20
2023-03-12T13:54:54.076Z,0.97
2023-03-12T13:57:33.144Z,1.20
2023-03-12T14:00:07.351Z,4.00
2023-03-12T14:02:41.089Z,1.13
2023-03-12T14:05:14.867Z,1.73
2023-03-12T14:08:01.427Z,0.90
2023-03-12T14:10:37.614Z,0.70
2023-03-12T14:13:15.816Z,1.80
2023-03-12T14:15:51.634Z,0.70
2023-03-12T14:18:24.573Z,0.90
2023-03-12T14:20:58.206Z,1.40
2023-03-12T14:23:31.910Z,1.90
2023-03-12T14:26:04.712Z,0.53
2023-03-12T14:28:39.933Z,2.53
2023-03-12T14:31:13.786Z,1.40
2023-03-12T14:36:30.749Z,2.50
2023-03-12T14:39:05.388Z,1.30
2023-03-12T14:41:38.482Z,1.50
2023-03-12T14:44:14.818Z,3.87
2023-03-12T14:46:51.039Z,3.67
2023-03-12T14:49:23.679Z,1.73
2023-03-12T14:51:54.731Z,5.90
2023-03-12T14:57:04.875Z,0.60
2023-03-12T14:59:37.799Z,0.77
2023-03-12T15:02:14.659Z,1.03
2023-03-12T15:04:46.352Z,1.57
2023-03-12T15:07:20.480Z,1.80
2023-03-12T15:09:53.286Z,2.90
2023-03-12T15:12:26.127Z,1.20
2023-03-12T15:14:59.677Z,0.60
2023-03-12T15:17:32.987Z,1.10
2023-03-12T15:20:07.290Z,21.12
2023-03-12T15:22:38.883Z,1.70
2023-03-12T15:25:24.637Z,1.70
2023-03-12T15:28:08.270Z,1.50
2023-03-12T15:30:41.172Z,1.13
2023-03-12T15:33:14.129Z,0.83
2023-03-12T15:35:47.326Z,0.30
2023-03-12T15:38:20.618Z,0.80
2023-03-12T15:40:56.459Z,1.27
2023-03-12T15:43:27.322Z,4.70
2023-03-12T15:46:03.884Z,13.35
2023-03-12T15:48:37.748Z,2.83
2023-03-12T15:51:17.658Z,1.07
2023-03-12T15:53:49.886Z,1.03
2023-03-12T15:56:25.714Z,0.77
2023-03-12T15:59:19.117Z,3.67
2023-03-12T16:01:51.409Z,5.90
2023-03-12T16:04:23.091Z,0.77
2023-03-12T16:06:54.455Z,0.67
2023-03-12T16:09:27.255Z,0.90
2023-03-12T16:11:59.317Z,1.70
2023-03-12T16:14:33.280Z,1.43
2023-03-12T16:17:07.036Z,2.17
2023-03-12T16:19:37.884Z,1.03
2023-03-12T16:22:08.616Z,1.53
2023-03-12T16:24:39.175Z,2.00
2023-03-12T16:27:15.840Z,0.77
2023-03-12T16:29:46.034Z,1.57
2023-03-12T16:32:18.425Z,1.70
2023-03-12T16:34:49.539Z,0.37
2023-03-12T16:37:20.683Z,1.10
2023-03-12T16:39:51.644Z,0.90
2023-03-12T16:42:23.311Z,1.07
2023-03-12T16:44:54.174Z,0.97
2023-03-12T16:47:26.089Z,1.17
2023-03-12T16:49:56.915Z,0.67
2023-03-12T16:52:28.496Z,1.07
2023-03-12T16:54:59.371Z,1.40
2023-03-12T16:57:33.616Z,1.40
2023-03-12T17:00:08.184Z,0.63
2023-03-12T17:02:40.269Z,2.80
2023-03-12T17:05:13.068Z,1.83
2023-03-12T17:07:44.410Z,1.70
2023-03-12T17:10:16.734Z,1.87
2023-03-12T17:12:49.223Z,2.53
2023-03-12T17:15:23.594Z,1.20
2023-03-12T17:17:55.730Z,0.97
2023-03-12T17:20:27.294Z,3.70
2023-03-12T17:22:58.272Z,3.23
2023-03-12T17:25:31.510Z,1.30
2023-03-12T17:28:02.274Z,1.63
2023-03-12T17:30:35.250Z,0.77
2023-03-12T17:33:07.809Z,3.10
2023-03-12T17:35:38.667Z,5.50
2023-03-12T17:38:09.912Z,2.60
2023-03-12T17:40:44.150Z,2.40
2023-03-12T17:43:14.968Z,1.80
2023-03-12T17:45:45.937Z,1.80
2023-03-12T17:48:16.666Z,1.63
2023-03-12T17:50:47.674Z,1.20
2023-03-12T17:53:18.456Z,1.87
2023-03-12T17:55:49.634Z,1.47
2023-03-12T17:58:20.342Z,2.30
2023-03-12T18:00:51.620Z,1.50
2023-03-12T18:03:22.852Z,2.27
2023-03-12T18:05:53.742Z,2.50
2023-03-12T18:08:24.736Z,0.90
2023-03-12T18:10:55.359Z,2.60
2023-03-12T18:13:26.068Z,1.27
2023-03-12T18:16:00.055Z,1.23
2023-03-12T18:18:30.742Z,2.40
2023-03-12T18:21:01.383Z,3.67
2023-03-12T18:23:31.986Z,3.57
2023-03-12T18:26:02.560Z,2.67
2023-03-12T18:28:33.166Z,1.20
2023-03-12T18:31:15.617Z,2.77
2023-03-12T18:33:46.251Z,4.63
2023-03-12T18:36:16.941Z,6.37
2023-03-12T18:38:47.969Z,2.87
2023-03-12T18:41:18.604Z,5.43
2023-03-12T18:43:49.298Z,3.23
2023-03-12T18:46:19.966Z,5.97
2023-03-12T18:48:51.675Z,4.80
2023-03-12T18:51:22.650Z,5.20
2023-03-12T18:53:53.240Z,1.40
2023-03-12T18:56:23.739Z,1.30
2023-03-12T18:58:54.348Z,3.30
2023-03-12T19:01:25.051Z,2.90
2023-03-12T19:03:55.736Z,6.13
2023-03-12T19:06:28.388Z,1.80
2023-03-12T19:09:00.006Z,1.50
2023-03-12T19:11:32.124Z,2.00
2023-03-12T19:14:03.636Z,4.83
2023-03-12T19:16:34.483Z,3.87
2023-03-12T19:19:05.144Z,1.10
2023-03-12T19:21:35.848Z,3.50
2023-03-12T19:24:06.893Z,2.27
2023-03-12T19:26:37.548Z,4.90
2023-03-12T19:29:08.517Z,1.70
2023-03-12T19:31:39.283Z,3.33
2023-03-12T19:34:10.095Z,1.10
2023-03-12T19:36:41.062Z,3.43
2023-03-12T19:39:21.167Z,2.70
2023-03-12T19:41:45.941Z,1.83
2023-03-12T19:44:16.833Z,1.23
2023-03-12T19:46:47.827Z,3.23
2023-03-12T19:49:18.737Z,4.40
2023-03-12T19:51:49.731Z,1.20
2023-03-12T19:54:20.977Z,3.50
2023-03-12T19:56:51.883Z,3.47
2023-03-12T19:59:22.762Z,2.83
2023-03-12T20:01:54.235Z,1.80
2023-03-12T20:07:01.963Z,1.60
2023-03-12T20:09:34.252Z,2.53
2023-03-12T20:12:05.548Z,3.00
2023-03-12T20:14:36.584Z,2.03
2023-03-12T20:17:08.030Z,1.50
2023-03-12T20:19:38.970Z,3.27
2023-03-12T20:22:10.302Z,3.97
2023-03-12T20:24:41.481Z,3.47
2023-03-12T20:27:13.161Z,2.53
2023-03-12T20:29:46.247Z,2.47
2023-03-12T20:32:18.595Z,2.47
2023-03-12T20:34:49.360Z,1.50
2023-03-12T20:37:20.299Z,2.40
2023-03-12T20:39:51.350Z,4.10
2023-03-12T20:42:22.541Z,1.90
2023-03-12T20:44:53.927Z,3.43
2023-03-12T20:47:25.290Z,2.90
2023-03-12T20:49:56.376Z,3.57
2023-03-12T20:52:27.304Z,2.43
2023-03-12T20:54:58.249Z,1.67
2023-03-12T20:57:29.248Z,2.37
2023-03-12T21:00:00.928Z,4.00
2023-03-12T21:02:31.888Z,2.10
2023-03-12T21:05:02.992Z,3.97
2023-03-12T21:07:33.863Z,2.93
2023-03-12T21:10:05.080Z,4.77
2023-03-12T21:12:36.097Z,8.30
2023-03-12T21:15:09.835Z,3.27
2023-03-12T21:17:42.255Z,3.30
2023-03-12T21:20:17.219Z,4.70
2023-03-12T21:22:47.792Z,2.67
2023-03-12T21:25:18.485Z,3.07
2023-03-12T21:27:51.354Z,2.87
2023-03-12T21:30:21.708Z,6.10
2023-03-12T21:32:52.336Z,8.50
2023-03-12T21:35:22.952Z,3.53
2023-03-12T21:37:54.547Z,6.63
2023-03-12T21:40:25.524Z,3.37
2023-03-12T21:42:56.010Z,3.93
2023-03-12T21:45:27.416Z,6.27
2023-03-12T21:47:58.318Z,2.60
2023-03-12T21:50:29.335Z,3.20
2023-03-12T21:53:00.370Z,5.07
2023-03-12T21:55:31.532Z,7.07
2023-03-12T21:58:02.413Z,4.10
2023-03-12T22:00:33.254Z,3.40
2023-03-12T22:03:03.761Z,3.40
2023-03-12T22:05:34.346Z,5.30
2023-03-12T22:08:05.076Z,2.17
2023-03-12T22:10:36.697Z,5.20
2023-03-12T22:13:07.483Z,2.97
2023-03-12T22:15:38.292Z,4.57
2023-03-12T22:18:09.034Z,3.67
2023-03-12T22:20:39.886Z,1.77
2023-03-12T22:23:10.634Z,3.07
2023-03-12T22:25:41.408Z,3.20
2023-03-12T22:28:12.299Z,2.77
2023-03-12T22:30:44.593Z,2.63
2023-03-12T22:33:15.832Z,3.93
2023-03-12T22:35:47.838Z,4.17
2023-03-12T22:38:18.642Z,5.43
2023-03-12T22:40:49.558Z,2.77
2023-03-12T22:43:20.307Z,3.43
2023-03-12T22:48:33.373Z,4.50
2023-03-12T22:51:04.683Z,1.80
2023-03-12T22:53:35.935Z,2.60
2023-03-12T22:56:09.512Z,2.98
2023-03-12T22:58:41.022Z,7.87
2023-03-12T23:01:14.911Z,2.97
2023-03-12T23:03:46.962Z,4.83
2023-03-12T23:06:20.087Z,6.17
2023-03-12T23:08:51.697Z,2.90
2023-03-12T23:11:24.211Z,3.93
2023-03-12T23:13:55.941Z,3.93
2023-03-12T23:16:28.303Z,2.73
2023-03-12T23:19:00.110Z,4.57
2023-03-12T23:21:32.242Z,2.50
2023-03-12T23:24:03.512Z,4.30
2023-03-12T23:26:34.660Z,1.70
2023-03-12T23:29:05.909Z,4.20
2023-03-12T23:31:37.385Z,3.40
2023-03-12T23:34:10.643Z,2.93
2023-03-12T23:36:42.610Z,4.47
2023-03-12T23:39:14.396Z,4.83
2023-03-12T23:41:45.715Z,4.33
2023-03-12T23:44:16.895Z,3.17
2023-03-12T23:46:48.119Z,4.63
2023-03-12T23:49:19.500Z,2.93
2023-03-12T23:51:50.957Z,2.83
2023-03-12T23:54:22.265Z,2.90
2023-03-12T23:56:53.473Z,5.80
2023-03-12T23:59:24.692Z,4.87
